Главная страница
METAR-TAF:

METAR-TAF

Аэропорты :

Яссы, Румыния

широта: 47-10N, долгота: 027-38E, высота над уровнем моря: 102 м

Текущие метеонаблюдения

Эта сводка был подготовлена 33 минут назад, в 15:00 UTC
Ветер 10 Узел от северо-восточный
Температура 10°C
Влажность 76%
Давление 1016 hPa
Видимость 10 км и более
Нет облачности ниже 1500 м, и нет кучево-дождевой облачности

METAR: LRIA 221500Z 05010KT CAVOK 10/06 Q1016

Время: 18:33 (15:33 UTC)

Прогноз

Эта сводка был подготовлена 1 час и 33 минут назад, в 14:00 UTC
Прогноз действительный с 22-го 15 UTC до 22-го 24 UTC
Ветер 8 Узел от восточно-северо-восточный
Видимость 10 км и более
Рассеянная облачность на высоте 4000 фута
изменения
С 22-го 20 UTC до 22-го 22 UTC
Рассеянная облачность на высоте 1000 фута

TAF: LRIA 221400Z 2215/2224 06008KT 9999 BKN040 BECMG 2220/2222 BKN010

Метеонаблюдения и прогнозы для более 4000 аэропортов (сводки METAR и TAF).

Имеющиеся станции представлены на карте желтыми и красными точками.

Чтобы увидеть название станции, наведите на нее мышь.

Затем щелкните, чтобы увидеть метеонаблюдения и метеопрогнозы.

Управление картой: чтобы увеличить масштаб, щелкните зеленые кнопки с черным крестиком; чтобы уменьшить масштаб, щелкните зеленую кнопку с тире; для просмотра соседних карт щелкайте зеленые стрелки.


METAR-TAF: